Time;durP1;ratioP1;P1;durP2;ratioP2;P2;SDS_P1;SDS_P2;PMS_P1;PMS_P2;Temp;Humidity;BMP_temperature;BMP_pressure;BME280_temperature;BME280_humidity;BME280_pressure;Samples;Min_cycle;Max_cycle;Signal;HPM_P1;HPM_P2
2021/07/21 00:00:23;;;;;;;;;;;14.20;99.90;;;;;;5089977;28;19915;-71
2021/07/21 00:02:49;;;;;;;;;;;14.10;99.90;;;;;;5091528;28;19955;-71
2021/07/21 00:05:16;;;;;;;;;;;14.10;99.90;;;;;;5091545;28;20419;-73
2021/07/21 00:07:41;;;;;;;;;;;14.10;99.90;;;;;;5091385;28;19908;-71
2021/07/21 00:10:08;;;;;;;;;;;14.10;99.90;;;;;;5091332;28;19912;-74
2021/07/21 00:15:18;;;;;;;;;;;14.10;99.90;;;;;;5091121;28;19966;-71
2021/07/21 00:17:45;;;;;;;;;;;14.00;99.90;;;;;;5091460;28;19947;-71
2021/07/21 00:20:11;;;;;;;;;;;14.00;99.90;;;;;;5091360;28;20002;-71
2021/07/21 00:22:39;;;;;;;;;;;14.00;99.90;;;;;;5091669;28;19953;-72
2021/07/21 00:25:06;;;;;;;;;;;14.00;99.90;;;;;;5091246;28;19908;-71
2021/07/21 00:27:31;;;;;;;;;;;14.00;99.90;;;;;;5090979;28;19915;-73
2021/07/21 00:29:57;;;;;;;;;;;13.90;99.90;;;;;;5090231;28;19912;-71
2021/07/21 00:32:22;;;;;;;;;;;13.80;99.90;;;;;;5091314;28;20285;-71
2021/07/21 00:34:48;;;;;;;;;;;13.80;99.90;;;;;;5091178;28;19937;-71
2021/07/21 00:37:13;;;;;;;;;;;13.80;99.90;;;;;;5090982;28;20009;-72
2021/07/21 00:39:39;;;;;;;;;;;13.80;99.90;;;;;;5091259;28;20253;-71
2021/07/21 00:42:05;;;;;;;;;;;13.70;99.90;;;;;;5090940;28;19908;-71
2021/07/21 00:44:30;;;;;;;;;;;13.60;99.90;;;;;;5091305;28;19912;-71
2021/07/21 00:46:56;;;;;;;;;;;13.60;99.90;;;;;;5089348;28;20254;-74
2021/07/21 00:49:25;;;;;;;;;;;13.50;99.90;;;;;;5091249;28;19960;-72
2021/07/21 00:51:54;;;;;;;;;;;13.50;99.90;;;;;;5090950;28;19978;-71
2021/07/21 00:54:22;;;;;;;;;;;13.40;99.90;;;;;;5091172;28;19958;-71
2021/07/21 00:56:48;;;;;;;;;;;13.40;99.90;;;;;;5090302;28;19915;-71
2021/07/21 00:59:14;;;;;;;;;;;13.40;99.90;;;;;;5091256;28;20284;-71
2021/07/21 01:01:40;;;;;;;;;;;13.40;99.90;;;;;;5089713;28;20011;-72
2021/07/21 01:04:05;;;;;;;;;;;13.40;99.90;;;;;;5091261;28;20408;-71
2021/07/21 01:06:31;;;;;;;;;;;13.40;99.90;;;;;;5090494;28;20349;-71
2021/07/21 01:08:57;;;;;;;;;;;13.40;99.90;;;;;;5091408;28;20048;-71
2021/07/21 01:11:27;;;;;;;;;;;13.40;99.90;;;;;;5090705;28;19976;-71
2021/07/21 01:14:11;;;;;;;;;;;13.40;99.90;;;;;;5091107;28;19908;-73
2021/07/21 01:16:40;;;;;;;;;;;13.40;99.90;;;;;;5089950;28;20379;-71
2021/07/21 01:19:10;;;;;;;;;;;13.40;99.90;;;;;;5091010;28;19999;-71
2021/07/21 01:21:47;;;;;;;;;;;13.40;99.90;;;;;;5090650;28;20049;-71
2021/07/21 01:24:13;;;;;;;;;;;13.50;99.90;;;;;;5090988;28;20345;-71
2021/07/21 01:26:42;;;;;;;;;;;13.40;99.90;;;;;;5091405;28;19915;-72
2021/07/21 01:29:09;;;;;;;;;;;13.40;99.90;;;;;;5094548;28;19919;-71
2021/07/21 01:31:35;;;;;;;;;;;13.50;99.90;;;;;;5093690;28;19908;-71
2021/07/21 01:34:02;;;;;;;;;;;13.50;99.90;;;;;;5093174;28;19994;-72
2021/07/21 01:36:42;;;;;;;;;;;13.60;99.90;;;;;;5093975;28;19908;-71
2021/07/21 01:39:13;;;;;;;;;;;13.60;99.90;;;;;;5094341;28;19914;-72
2021/07/21 01:41:42;;;;;;;;;;;13.60;99.90;;;;;;5094543;28;19955;-71
2021/07/21 01:44:12;;;;;;;;;;;13.50;99.90;;;;;;5094210;28;19919;-71
2021/07/21 01:46:39;;;;;;;;;;;13.60;99.90;;;;;;5093872;28;19977;-71
2021/07/21 01:49:04;;;;;;;;;;;13.60;99.90;;;;;;5093951;28;19908;-71
2021/07/21 01:51:32;;;;;;;;;;;13.60;99.90;;;;;;5094479;28;19915;-71
2021/07/21 01:53:58;;;;;;;;;;;13.60;99.90;;;;;;5093886;28;19908;-72
2021/07/21 01:56:25;;;;;;;;;;;13.60;99.90;;;;;;5093822;28;19914;-73
2021/07/21 01:58:52;;;;;;;;;;;13.60;99.90;;;;;;5093736;28;20365;-71
2021/07/21 02:01:18;;;;;;;;;;;13.60;99.90;;;;;;5106544;28;19953;-71
2021/07/21 02:03:44;;;;;;;;;;;13.60;99.90;;;;;;5113742;28;19933;-73
2021/07/21 02:06:10;;;;;;;;;;;13.60;99.90;;;;;;5112552;28;19999;-71
2021/07/21 02:08:37;;;;;;;;;;;13.60;99.90;;;;;;5114030;28;19995;-73
2021/07/21 02:11:03;;;;;;;;;;;13.60;99.90;;;;;;5114214;28;19919;-71
2021/07/21 02:13:29;;;;;;;;;;;13.60;99.90;;;;;;5114265;28;19923;-71
2021/07/21 02:15:55;;;;;;;;;;;13.60;99.90;;;;;;5113551;28;20469;-71
2021/07/21 02:18:21;;;;;;;;;;;13.60;99.90;;;;;;5113733;28;19996;-71
2021/07/21 02:20:47;;;;;;;;;;;13.60;99.90;;;;;;5113678;28;20322;-71
2021/07/21 02:23:13;;;;;;;;;;;13.60;99.90;;;;;;5113901;28;19914;-71
2021/07/21 02:25:40;;;;;;;;;;;13.60;99.90;;;;;;5113535;28;19961;-71
2021/07/21 02:28:05;;;;;;;;;;;13.60;99.90;;;;;;5113582;28;19917;-71
2021/07/21 02:30:31;;;;;;;;;;;13.60;99.90;;;;;;5104336;28;19916;-71
2021/07/21 02:33:13;;;;;;;;;;;13.60;99.90;;;;;;5093252;28;19908;-73
2021/07/21 02:35:38;;;;;;;;;;;13.70;99.90;;;;;;5093041;28;19912;-74
2021/07/21 02:38:05;;;;;;;;;;;13.70;99.90;;;;;;5091731;28;20303;-71
2021/07/21 02:40:30;;;;;;;;;;;13.70;99.90;;;;;;5092897;28;20157;-71
2021/07/21 02:42:56;;;;;;;;;;;13.70;99.90;;;;;;5093536;28;19908;-71
2021/07/21 02:45:21;;;;;;;;;;;13.70;99.90;;;;;;5091403;28;20006;-71
2021/07/21 02:47:47;;;;;;;;;;;13.70;99.90;;;;;;5092690;28;19909;-71
2021/07/21 02:50:15;;;;;;;;;;;13.70;99.90;;;;;;5093053;28;19912;-72
2021/07/21 02:52:53;;;;;;;;;;;13.70;99.90;;;;;;5092659;28;19915;-71
2021/07/21 02:55:28;;;;;;;;;;;13.60;99.90;;;;;;5092996;28;19912;-74
2021/07/21 02:58:03;;;;;;;;;;;13.60;99.90;;;;;;5092311;28;19912;-71
2021/07/21 03:00:30;;;;;;;;;;;13.60;99.90;;;;;;5091852;28;20003;-73
2021/07/21 03:02:57;;;;;;;;;;;13.60;99.90;;;;;;5092172;28;20401;-71
2021/07/21 03:05:24;;;;;;;;;;;13.60;99.90;;;;;;5092809;28;20139;-71
2021/07/21 03:07:55;;;;;;;;;;;13.50;99.90;;;;;;5091741;28;19915;-72
2021/07/21 03:10:20;;;;;;;;;;;13.50;99.90;;;;;;5092633;28;19947;-71
2021/07/21 03:12:57;;;;;;;;;;;13.50;99.90;;;;;;5092314;28;20000;-71
2021/07/21 03:15:24;;;;;;;;;;;13.40;99.90;;;;;;5092691;28;19915;-71
2021/07/21 03:17:50;;;;;;;;;;;13.40;99.90;;;;;;5091577;28;19908;-71
2021/07/21 03:20:16;;;;;;;;;;;13.40;99.90;;;;;;5093046;28;20367;-71
2021/07/21 03:22:42;;;;;;;;;;;13.40;99.90;;;;;;5092285;28;20249;-72
2021/07/21 03:25:09;;;;;;;;;;;13.40;99.90;;;;;;5092449;28;19912;-71
2021/07/21 03:27:36;;;;;;;;;;;13.40;99.90;;;;;;5091537;28;19908;-71
2021/07/21 03:30:05;;;;;;;;;;;13.20;99.90;;;;;;5091499;28;19956;-71
2021/07/21 03:32:31;;;;;;;;;;;13.20;99.90;;;;;;5091745;28;19947;-71
2021/07/21 03:34:57;;;;;;;;;;;13.10;99.90;;;;;;5092169;28;19916;-71
2021/07/21 03:37:23;;;;;;;;;;;13.20;99.90;;;;;;5090037;28;20388;-72
2021/07/21 03:39:54;;;;;;;;;;;13.10;99.90;;;;;;5091969;28;19918;-71
2021/07/21 03:42:21;;;;;;;;;;;13.20;99.90;;;;;;5092044;28;20388;-72
2021/07/21 03:44:47;;;;;;;;;;;13.10;99.90;;;;;;5091570;28;19948;-71
2021/07/21 03:47:13;;;;;;;;;;;13.10;99.90;;;;;;5091521;28;19954;-71
2021/07/21 03:49:40;;;;;;;;;;;13.00;99.90;;;;;;5090944;28;19912;-71
2021/07/21 03:52:08;;;;;;;;;;;12.90;99.90;;;;;;5091886;28;20373;-71
2021/07/21 03:54:33;;;;;;;;;;;12.90;99.90;;;;;;5091599;28;19908;-71
2021/07/21 03:57:00;;;;;;;;;;;12.90;99.90;;;;;;5091465;28;19908;-71
2021/07/21 03:59:26;;;;;;;;;;;12.90;99.90;;;;;;5091524;28;19931;-71
2021/07/21 04:01:54;;;;;;;;;;;12.90;99.90;;;;;;5091039;28;19915;-71
2021/07/21 04:04:21;;;;;;;;;;;13.00;99.90;;;;;;5091266;28;19908;-71
2021/07/21 04:06:47;;;;;;;;;;;12.90;99.90;;;;;;5091133;28;19908;-74
2021/07/21 04:09:17;;;;;;;;;;;13.00;99.90;;;;;;5091200;28;20280;-71
2021/07/21 04:11:43;;;;;;;;;;;13.00;99.90;;;;;;5091633;28;19908;-73
2021/07/21 04:14:10;;;;;;;;;;;13.00;99.90;;;;;;5091385;28;19920;-73
2021/07/21 04:16:37;;;;;;;;;;;13.00;99.90;;;;;;5090978;28;19947;-71
2021/07/21 04:19:03;;;;;;;;;;;13.00;99.90;;;;;;5091361;28;19927;-71
2021/07/21 04:21:29;;;;;;;;;;;13.00;99.90;;;;;;5090942;28;19912;-71
2021/07/21 04:23:55;;;;;;;;;;;13.00;99.90;;;;;;5091366;28;20330;-71
2021/07/21 04:26:20;;;;;;;;;;;13.00;99.90;;;;;;5090625;28;19912;-71
2021/07/21 04:28:46;;;;;;;;;;;12.90;99.90;;;;;;5091310;28;19961;-71
2021/07/21 04:31:12;;;;;;;;;;;12.90;99.90;;;;;;5088605;28;20270;-71
2021/07/21 04:33:38;;;;;;;;;;;13.00;99.90;;;;;;5091102;28;19919;-71
2021/07/21 04:36:03;;;;;;;;;;;13.10;99.90;;;;;;5090456;28;19912;-72
2021/07/21 04:38:30;;;;;;;;;;;13.10;99.90;;;;;;5091404;28;19919;-71
2021/07/21 04:40:56;;;;;;;;;;;13.10;99.90;;;;;;5089497;28;19914;-73
2021/07/21 04:43:21;;;;;;;;;;;13.20;99.90;;;;;;5091251;28;19994;-71
2021/07/21 04:45:49;;;;;;;;;;;13.30;99.90;;;;;;5090669;28;19928;-71
2021/07/21 04:48:14;;;;;;;;;;;13.30;99.90;;;;;;5090664;28;19908;-71
2021/07/21 04:50:42;;;;;;;;;;;13.40;99.90;;;;;;5091011;28;20387;-72
2021/07/21 04:53:08;;;;;;;;;;;13.50;99.90;;;;;;5090750;28;20482;-71
2021/07/21 04:55:33;;;;;;;;;;;13.50;99.90;;;;;;5091079;28;19938;-71
2021/07/21 04:57:59;;;;;;;;;;;13.60;99.90;;;;;;5090362;28;19908;-71
2021/07/21 05:00:24;;;;;;;;;;;13.60;99.90;;;;;;5090003;28;20310;-72
2021/07/21 05:02:50;;;;;;;;;;;13.70;99.90;;;;;;5093184;28;19912;-73
2021/07/21 05:05:15;;;;;;;;;;;13.70;99.90;;;;;;5094979;28;19927;-71
2021/07/21 05:07:41;;;;;;;;;;;13.80;99.90;;;;;;5094246;28;20332;-71
2021/07/21 05:10:07;;;;;;;;;;;13.80;99.90;;;;;;5094888;28;19938;-71
2021/07/21 05:12:32;;;;;;;;;;;13.90;99.90;;;;;;5094668;28;19908;-72
2021/07/21 05:14:58;;;;;;;;;;;14.00;99.90;;;;;;5094766;28;19916;-71
2021/07/21 05:17:23;;;;;;;;;;;14.00;99.90;;;;;;5094077;28;19916;-71
2021/07/21 05:19:49;;;;;;;;;;;14.00;99.90;;;;;;5094724;28;19912;-71
2021/07/21 05:22:14;;;;;;;;;;;14.10;99.90;;;;;;5094495;28;19908;-71
2021/07/21 05:24:39;;;;;;;;;;;14.10;99.90;;;;;;5094812;28;20231;-71
2021/07/21 05:27:05;;;;;;;;;;;14.20;99.90;;;;;;5094194;28;19915;-71
2021/07/21 05:29:31;;;;;;;;;;;14.30;99.90;;;;;;5094671;28;19959;-72
2021/07/21 05:31:56;;;;;;;;;;;14.40;99.90;;;;;;5093400;28;19945;-71
2021/07/21 05:34:22;;;;;;;;;;;14.60;99.90;;;;;;5094297;28;19982;-71
2021/07/21 05:36:47;;;;;;;;;;;14.80;99.90;;;;;;5094273;28;20006;-71
2021/07/21 05:39:15;;;;;;;;;;;14.90;99.90;;;;;;5093522;28;19915;-74
2021/07/21 05:41:41;;;;;;;;;;;15.20;99.90;;;;;;5094508;28;19914;-71
2021/07/21 05:44:06;;;;;;;;;;;15.40;99.90;;;;;;5094071;28;19999;-71
2021/07/21 05:46:32;;;;;;;;;;;15.60;99.90;;;;;;5093769;28;19970;-71
2021/07/21 05:48:58;;;;;;;;;;;15.80;99.90;;;;;;5093917;28;19912;-72
2021/07/21 05:51:23;;;;;;;;;;;16.00;99.90;;;;;;5094220;28;19916;-72
2021/07/21 05:53:49;;;;;;;;;;;16.30;99.90;;;;;;5094107;28;19995;-72
2021/07/21 05:56:15;;;;;;;;;;;16.50;99.90;;;;;;5092565;28;20424;-71
2021/07/21 05:58:40;;;;;;;;;;;16.70;99.90;;;;;;5092712;28;19947;-72
2021/07/21 06:01:06;;;;;;;;;;;16.70;99.90;;;;;;5092993;28;19955;-72
2021/07/21 06:03:32;;;;;;;;;;;16.70;99.90;;;;;;5093800;28;19908;-74
2021/07/21 06:05:57;;;;;;;;;;;16.80;99.90;;;;;;5093937;28;20284;-71
2021/07/21 06:08:24;;;;;;;;;;;17.00;99.90;;;;;;5093893;28;19950;-72
2021/07/21 06:10:49;;;;;;;;;;;17.20;99.90;;;;;;5092453;28;19928;-72
2021/07/21 06:13:15;;;;;;;;;;;17.20;99.90;;;;;;5093754;28;20414;-72
2021/07/21 06:15:40;;;;;;;;;;;17.30;99.90;;;;;;5093593;28;20404;-72
2021/07/21 06:18:06;;;;;;;;;;;17.20;99.90;;;;;;5091037;28;19957;-73
2021/07/21 06:20:31;;;;;;;;;;;17.20;99.90;;;;;;5085736;28;19909;-72
2021/07/21 06:22:57;;;;;;;;;;;17.30;99.90;;;;;;5091146;28;20280;-72
2021/07/21 06:25:22;;;;;;;;;;;17.60;99.90;;;;;;5088793;28;19912;-72
2021/07/21 06:27:50;;;;;;;;;;;18.00;99.90;;;;;;5091640;28;19919;-74
2021/07/21 06:30:15;;;;;;;;;;;18.40;99.90;;;;;;5090443;28;19916;-72
2021/07/21 06:32:41;;;;;;;;;;;18.60;99.90;;;;;;5091595;28;20403;-72
2021/07/21 06:35:07;;;;;;;;;;;18.60;99.90;;;;;;5090366;28;19908;-75
2021/07/21 06:37:33;;;;;;;;;;;18.60;99.90;;;;;;5089461;28;20338;-72
2021/07/21 06:39:59;;;;;;;;;;;18.80;99.90;;;;;;5090984;28;19912;-72
2021/07/21 06:42:24;;;;;;;;;;;18.80;99.90;;;;;;5091863;28;20026;-72
2021/07/21 06:44:50;;;;;;;;;;;18.70;99.90;;;;;;5084260;28;20568;-72
2021/07/21 06:47:16;;;;;;;;;;;18.60;99.90;;;;;;5081058;28;19909;-72
2021/07/21 06:49:41;;;;;;;;;;;18.40;99.90;;;;;;5082650;28;19912;-72
2021/07/21 06:52:07;;;;;;;;;;;18.40;99.90;;;;;;5090177;28;19920;-72
2021/07/21 06:54:32;;;;;;;;;;;18.70;99.90;;;;;;5074576;28;19940;-74
2021/07/21 06:56:58;;;;;;;;;;;19.20;99.90;;;;;;5087348;28;20209;-74
2021/07/21 06:59:27;;;;;;;;;;;19.60;99.90;;;;;;5074662;28;20723;-72
2021/07/21 07:01:53;;;;;;;;;;;20.00;99.90;;;;;;5090800;28;19908;-72
2021/07/21 07:04:18;;;;;;;;;;;20.60;99.90;;;;;;5091353;28;19920;-72
2021/07/21 07:06:44;;;;;;;;;;;21.30;99.90;;;;;;5091307;28;19908;-73
2021/07/21 07:09:09;;;;;;;;;;;21.80;99.90;;;;;;5091583;28;19957;-72
2021/07/21 07:11:35;;;;;;;;;;;22.20;99.90;;;;;;5086551;28;19916;-72
2021/07/21 07:14:00;;;;;;;;;;;22.60;99.90;;;;;;5095862;28;19912;-72
2021/07/21 07:16:26;;;;;;;;;;;22.80;99.90;;;;;;5091572;28;19908;-72
2021/07/21 07:18:51;;;;;;;;;;;23.30;99.90;;;;;;5085928;28;19908;-73
2021/07/21 07:21:17;;;;;;;;;;;23.70;99.90;;;;;;5087990;28;19955;-72
2021/07/21 07:23:43;;;;;;;;;;;23.90;99.90;;;;;;5078568;28;20285;-72
2021/07/21 07:26:08;;;;;;;;;;;24.20;99.90;;;;;;5072843;28;19920;-72
2021/07/21 07:28:33;;;;;;;;;;;24.50;99.90;;;;;;5072834;28;20170;-73
2021/07/21 07:30:59;;;;;;;;;;;24.50;99.90;;;;;;5089828;28;20281;-72
2021/07/21 07:33:25;;;;;;;;;;;24.60;99.80;;;;;;5080611;28;19908;-72
2021/07/21 07:35:50;;;;;;;;;;;24.70;99.90;;;;;;5072974;28;19971;-72
2021/07/21 07:38:17;;;;;;;;;;;24.60;99.60;;;;;;5085653;28;19929;-74
2021/07/21 07:40:42;;;;;;;;;;;24.50;99.90;;;;;;5082719;28;19951;-72
2021/07/21 07:43:08;;;;;;;;;;;25.10;99.90;;;;;;5090701;28;19996;-73
2021/07/21 07:45:34;;;;;;;;;;;25.20;99.90;;;;;;5087587;28;20391;-73
2021/07/21 07:48:00;;;;;;;;;;;25.50;99.90;;;;;;5084052;28;19943;-74
2021/07/21 07:50:25;;;;;;;;;;;25.70;99.00;;;;;;5078350;28;20016;-72
2021/07/21 07:52:51;;;;;;;;;;;25.70;99.00;;;;;;5085684;28;19909;-73
2021/07/21 07:55:16;;;;;;;;;;;25.90;97.60;;;;;;5088451;28;20279;-72
2021/07/21 07:57:42;;;;;;;;;;;25.60;98.00;;;;;;5085473;28;19914;-72
2021/07/21 08:00:09;;;;;;;;;;;25.10;98.10;;;;;;5088193;28;20077;-74
2021/07/21 08:02:35;;;;;;;;;;;24.90;97.40;;;;;;5086535;28;20362;-72
2021/07/21 08:05:01;;;;;;;;;;;24.90;97.50;;;;;;5089770;28;19962;-73
2021/07/21 08:07:32;;;;;;;;;;;24.90;98.90;;;;;;5089236;28;19926;-72
2021/07/21 08:09:57;;;;;;;;;;;25.20;99.30;;;;;;5076084;28;20380;-72
2021/07/21 08:12:23;;;;;;;;;;;25.40;98.50;;;;;;5086214;28;19908;-72
2021/07/21 08:14:49;;;;;;;;;;;25.60;98.90;;;;;;5089017;28;19912;-73
2021/07/21 08:17:14;;;;;;;;;;;25.80;97.20;;;;;;5087695;28;19937;-72
2021/07/21 08:19:40;;;;;;;;;;;25.70;97.30;;;;;;5085434;28;19908;-72
2021/07/21 08:22:05;;;;;;;;;;;25.70;96.20;;;;;;5086384;28;19953;-72
2021/07/21 08:24:31;;;;;;;;;;;26.00;96.40;;;;;;5081297;28;19908;-74
2021/07/21 08:26:56;;;;;;;;;;;26.20;96.70;;;;;;5088625;28;20073;-72
2021/07/21 08:29:22;;;;;;;;;;;26.30;93.80;;;;;;5086504;28;19909;-72
2021/07/21 08:31:48;;;;;;;;;;;26.70;94.80;;;;;;5087191;28;19943;-73
2021/07/21 08:34:14;;;;;;;;;;;26.80;96.10;;;;;;5090502;28;19908;-72
2021/07/21 08:36:41;;;;;;;;;;;26.80;95.60;;;;;;5088813;28;20272;-73
2021/07/21 08:39:09;;;;;;;;;;;27.00;94.60;;;;;;5091644;28;19914;-72
2021/07/21 08:41:35;;;;;;;;;;;26.90;94.70;;;;;;5086625;28;19918;-72
2021/07/21 08:44:00;;;;;;;;;;;26.50;93.30;;;;;;5090902;28;19912;-72
2021/07/21 08:46:26;;;;;;;;;;;26.10;94.40;;;;;;5090907;28;20426;-72
2021/07/21 08:48:51;;;;;;;;;;;26.00;94.60;;;;;;5081138;28;20373;-74
2021/07/21 08:51:19;;;;;;;;;;;26.00;94.60;;;;;;5083103;28;19957;-72
2021/07/21 08:53:45;;;;;;;;;;;26.30;95.50;;;;;;5090925;28;20273;-72
2021/07/21 08:56:11;;;;;;;;;;;26.70;94.60;;;;;;5090655;28;19909;-72
2021/07/21 08:58:37;;;;;;;;;;;26.50;94.60;;;;;;5081470;28;19909;-72
2021/07/21 09:01:02;;;;;;;;;;;26.60;94.00;;;;;;5089693;28;19909;-72
2021/07/21 09:03:28;;;;;;;;;;;26.70;94.60;;;;;;5090911;28;19912;-74
2021/07/21 09:05:53;;;;;;;;;;;26.80;94.40;;;;;;5091226;28;19908;-72
2021/07/21 09:08:19;;;;;;;;;;;27.00;94.20;;;;;;5089517;28;19915;-74
2021/07/21 09:10:45;;;;;;;;;;;27.20;93.00;;;;;;5089816;28;19912;-72
2021/07/21 09:13:12;;;;;;;;;;;27.60;93.70;;;;;;5090933;28;20031;-72
2021/07/21 09:15:38;;;;;;;;;;;28.00;92.20;;;;;;5090749;28;20380;-72
2021/07/21 09:18:06;;;;;;;;;;;28.10;92.60;;;;;;5090788;28;19912;-72
2021/07/21 09:20:36;;;;;;;;;;;28.10;91.10;;;;;;5090914;28;19912;-72
2021/07/21 09:23:01;;;;;;;;;;;28.00;91.60;;;;;;5090932;28;20006;-72
2021/07/21 09:25:29;;;;;;;;;;;27.80;91.50;;;;;;5091010;28;20006;-73
2021/07/21 09:27:56;;;;;;;;;;;27.60;91.70;;;;;;5076401;28;20023;-72
2021/07/21 09:30:23;;;;;;;;;;;27.80;93.40;;;;;;5075458;28;20364;-72
2021/07/21 09:32:54;;;;;;;;;;;28.00;92.80;;;;;;5100796;28;20303;-73
2021/07/21 09:35:20;;;;;;;;;;;28.00;91.70;;;;;;5111637;28;19919;-72
2021/07/21 09:37:46;;;;;;;;;;;28.20;91.10;;;;;;5108349;28;19908;-72
2021/07/21 09:40:11;;;;;;;;;;;28.30;90.80;;;;;;5111931;28;19908;-72
2021/07/21 09:42:38;;;;;;;;;;;28.40;90.80;;;;;;5111450;28;19992;-72
2021/07/21 09:45:07;;;;;;;;;;;28.30;91.50;;;;;;5111650;28;19926;-73
2021/07/21 09:47:33;;;;;;;;;;;28.70;93.60;;;;;;5111167;28;20479;-72
2021/07/21 09:50:31;;;;;;;;;;;29.00;91.20;;;;;;5085336;28;20022;-72
2021/07/21 09:53:02;;;;;;;;;;;29.30;89.50;;;;;;5070861;28;19973;-74
2021/07/21 09:55:28;;;;;;;;;;;29.20;91.10;;;;;;5094420;28;19936;-72
2021/07/21 09:57:56;;;;;;;;;;;29.40;91.80;;;;;;5094022;28;19943;-73
2021/07/21 10:00:29;;;;;;;;;;;29.80;91.70;;;;;;5077865;28;20304;-73
2021/07/21 10:03:11;;;;;;;;;;;30.20;91.00;;;;;;5084115;28;19912;-72
2021/07/21 10:05:55;;;;;;;;;;;30.50;83.70;;;;;;5078841;28;20321;-72
2021/07/21 10:08:27;;;;;;;;;;;30.10;81.20;;;;;;5092262;28;19914;-72
2021/07/21 10:10:53;;;;;;;;;;;29.90;85.40;;;;;;5082599;28;19999;-72
2021/07/21 10:13:19;;;;;;;;;;;29.80;83.50;;;;;;5092593;28;19916;-73
2021/07/21 10:15:45;;;;;;;;;;;30.00;92.00;;;;;;5092607;28;19908;-72
2021/07/21 10:18:15;;;;;;;;;;;30.00;86.40;;;;;;5084790;28;19909;-72
2021/07/21 10:20:41;;;;;;;;;;;30.20;86.80;;;;;;5073158;28;19912;-73
2021/07/21 10:23:08;;;;;;;;;;;30.50;87.90;;;;;;5073431;28;19909;-72
2021/07/21 10:25:34;;;;;;;;;;;30.80;86.90;;;;;;5076548;28;19943;-72
2021/07/21 10:27:59;;;;;;;;;;;30.80;82.90;;;;;;5089897;28;20007;-72
2021/07/21 10:30:26;;;;;;;;;;;30.20;83.50;;;;;;5090314;28;20424;-72
2021/07/21 10:32:53;;;;;;;;;;;29.80;89.00;;;;;;5090931;28;19908;-72
2021/07/21 10:35:19;;;;;;;;;;;29.40;84.30;;;;;;5087839;28;19912;-73
2021/07/21 10:37:45;;;;;;;;;;;29.70;90.10;;;;;;5088863;28;19912;-72
2021/07/21 10:40:11;;;;;;;;;;;29.70;86.90;;;;;;5076355;28;19953;-72
2021/07/21 10:42:37;;;;;;;;;;;29.70;84.10;;;;;;5073599;28;19948;-75
2021/07/21 10:45:14;;;;;;;;;;;29.10;87.30;;;;;;5090067;28;20072;-73
2021/07/21 10:47:43;;;;;;;;;;;29.10;88.20;;;;;;5090472;28;19908;-74
2021/07/21 10:50:24;;;;;;;;;;;29.60;90.00;;;;;;5087640;28;19922;-73
2021/07/21 10:52:59;;;;;;;;;;;29.60;84.90;;;;;;5085397;28;19912;-74
2021/07/21 10:55:27;;;;;;;;;;;29.70;84.40;;;;;;5092882;28;19908;-72
2021/07/21 11:00:51;;;;;;;;;;;29.90;83.60;;;;;;5085077;28;19918;-72
2021/07/21 11:03:17;;;;;;;;;;;30.00;85.80;;;;;;5090886;28;19908;-73
2021/07/21 11:05:50;;;;;;;;;;;30.20;83.50;;;;;;5086167;28;20005;-73
2021/07/21 11:08:17;;;;;;;;;;;30.50;82.80;;;;;;5091206;28;19950;-72
2021/07/21 11:10:44;;;;;;;;;;;30.70;82.40;;;;;;5090870;28;19969;-74
2021/07/21 11:13:14;;;;;;;;;;;30.40;79.90;;;;;;5090670;28;19958;-72
2021/07/21 11:15:41;;;;;;;;;;;30.30;81.30;;;;;;5088451;28;19971;-72
2021/07/21 11:18:24;;;;;;;;;;;30.20;80.00;;;;;;5085746;28;19947;-72
2021/07/21 11:21:06;;;;;;;;;;;29.80;81.50;;;;;;5076351;28;19909;-72
2021/07/21 11:23:38;;;;;;;;;;;30.00;84.10;;;;;;5088730;28;20266;-70
2021/07/21 11:26:22;;;;;;;;;;;30.00;81.10;;;;;;5081523;28;20419;-71
2021/07/21 11:28:47;;;;;;;;;;;30.30;81.30;;;;;;5071613;28;19908;-72
2021/07/21 11:31:13;;;;;;;;;;;30.30;80.30;;;;;;5093671;28;19958;-70
2021/07/21 11:33:46;;;;;;;;;;;30.30;83.90;;;;;;5098552;28;20011;-70
2021/07/21 11:36:13;;;;;;;;;;;30.50;83.30;;;;;;5086550;28;20310;-70
2021/07/21 11:38:49;;;;;;;;;;;30.20;79.20;;;;;;5081238;28;20323;-70
2021/07/21 11:41:33;;;;;;;;;;;30.00;82.30;;;;;;5101750;28;19908;-70
2021/07/21 11:44:01;;;;;;;;;;;30.30;82.60;;;;;;5078484;28;19937;-70
2021/07/21 11:46:27;;;;;;;;;;;30.30;85.30;;;;;;5085037;28;20024;-72
2021/07/21 11:48:52;;;;;;;;;;;30.50;80.80;;;;;;5085860;28;19952;-70
2021/07/21 11:51:18;;;;;;;;;;;30.70;79.20;;;;;;5103007;28;19912;-71
2021/07/21 11:53:46;;;;;;;;;;;30.70;82.70;;;;;;5090794;28;20288;-73
2021/07/21 11:56:11;;;;;;;;;;;30.50;80.10;;;;;;5086725;28;20479;-71
2021/07/21 11:58:37;;;;;;;;;;;30.50;79.80;;;;;;5081867;28;19999;-70
2021/07/21 12:01:05;;;;;;;;;;;30.30;79.20;;;;;;5074816;28;19908;-70
2021/07/21 12:03:42;;;;;;;;;;;30.30;81.10;;;;;;5081259;28;19991;-70
2021/07/21 12:06:07;;;;;;;;;;;30.40;78.40;;;;;;5075370;28;20349;-69
2021/07/21 12:08:33;;;;;;;;;;;30.00;80.40;;;;;;5083180;28;19915;-70
2021/07/21 12:11:08;;;;;;;;;;;29.60;80.20;;;;;;5077405;28;20331;-71
2021/07/21 12:13:34;;;;;;;;;;;29.70;81.00;;;;;;5071581;28;19909;-70
2021/07/21 12:16:00;;;;;;;;;;;30.00;84.70;;;;;;5067887;28;19923;-70
2021/07/21 12:18:25;;;;;;;;;;;30.30;80.90;;;;;;5081824;28;20340;-70
2021/07/21 12:20:51;;;;;;;;;;;30.40;80.70;;;;;;5088057;28;19947;-70
2021/07/21 12:23:19;;;;;;;;;;;30.60;77.70;;;;;;5090548;28;20364;-71
2021/07/21 12:25:45;;;;;;;;;;;30.50;79.80;;;;;;5091338;28;20010;-70
2021/07/21 12:28:10;;;;;;;;;;;30.50;77.90;;;;;;5091157;28;19948;-69
2021/07/21 12:30:36;;;;;;;;;;;30.30;78.50;;;;;;5082509;28;20356;-70
2021/07/21 12:33:03;;;;;;;;;;;30.20;83.70;;;;;;5098491;28;19908;-70
2021/07/21 12:35:29;;;;;;;;;;;30.10;78.80;;;;;;5086438;28;19920;-70
2021/07/21 12:37:55;;;;;;;;;;;30.10;79.80;;;;;;5084851;28;20254;-70
2021/07/21 12:40:22;;;;;;;;;;;30.40;80.10;;;;;;5078985;28;19953;-72
2021/07/21 12:42:50;;;;;;;;;;;30.50;77.50;;;;;;5077726;28;20311;-70
2021/07/21 12:45:17;;;;;;;;;;;30.80;79.80;;;;;;5089639;28;19916;-71
2021/07/21 12:47:46;;;;;;;;;;;30.90;78.00;;;;;;5088232;28;19931;-70
2021/07/21 12:50:12;;;;;;;;;;;31.00;75.40;;;;;;5081755;28;20065;-69
2021/07/21 12:52:48;;;;;;;;;;;30.60;78.20;;;;;;5081566;28;20011;-71
2021/07/21 12:55:15;;;;;;;;;;;30.00;79.60;;;;;;5085436;28;19908;-72
2021/07/21 12:57:44;;;;;;;;;;;29.90;78.90;;;;;;5077663;28;19951;-70
2021/07/21 13:00:10;;;;;;;;;;;29.90;80.30;;;;;;5085607;28;20008;-71
2021/07/21 13:02:36;;;;;;;;;;;30.00;80.30;;;;;;5083536;28;19999;-73
2021/07/21 13:05:03;;;;;;;;;;;30.20;78.80;;;;;;5089967;28;19915;-72
2021/07/21 13:07:29;;;;;;;;;;;30.40;78.90;;;;;;5086764;28;20369;-72
2021/07/21 13:09:54;;;;;;;;;;;30.60;81.00;;;;;;5083414;28;19923;-72
2021/07/21 13:12:20;;;;;;;;;;;30.50;77.30;;;;;;5088938;28;19908;-72
2021/07/21 13:14:55;;;;;;;;;;;30.40;75.60;;;;;;5086339;28;19913;-72
2021/07/21 13:17:27;;;;;;;;;;;30.00;78.50;;;;;;5086890;28;19950;-72
2021/07/21 13:19:59;;;;;;;;;;;29.90;78.50;;;;;;5081302;28;19908;-75
2021/07/21 13:22:25;;;;;;;;;;;30.00;78.10;;;;;;5078740;28;20376;-72
2021/07/21 13:24:50;;;;;;;;;;;30.00;77.40;;;;;;5084785;28;19915;-74
2021/07/21 13:27:26;;;;;;;;;;;29.90;77.40;;;;;;5091331;28;19908;-72
2021/07/21 13:29:52;;;;;;;;;;;30.00;76.00;;;;;;5092220;28;20277;-72
2021/07/21 13:32:25;;;;;;;;;;;29.60;77.20;;;;;;5094973;28;20088;-72
2021/07/21 13:35:01;;;;;;;;;;;29.20;79.80;;;;;;5091839;28;20399;-71
2021/07/21 13:37:26;;;;;;;;;;;28.80;78.30;;;;;;5101124;28;19998;-74
2021/07/21 13:39:52;;;;;;;;;;;28.90;78.50;;;;;;5113745;28;19969;-72
2021/07/21 13:42:18;;;;;;;;;;;29.00;77.40;;;;;;5115339;28;20279;-72
2021/07/21 13:44:46;;;;;;;;;;;29.20;80.40;;;;;;5102243;28;19997;-72
2021/07/21 13:47:11;;;;;;;;;;;29.40;79.40;;;;;;5086206;28;19914;-72
2021/07/21 13:49:38;;;;;;;;;;;29.50;79.60;;;;;;5079236;28;19998;-72
2021/07/21 13:52:05;;;;;;;;;;;29.50;79.00;;;;;;5097228;28;19908;-72
2021/07/21 13:54:35;;;;;;;;;;;29.30;79.90;;;;;;5092910;28;20319;-72
2021/07/21 13:57:04;;;;;;;;;;;29.00;78.30;;;;;;5091342;28;19966;-72
2021/07/21 13:59:30;;;;;;;;;;;28.50;80.30;;;;;;5093949;28;19912;-72
2021/07/21 14:01:56;;;;;;;;;;;28.40;80.70;;;;;;5091516;28;19961;-72
2021/07/21 14:04:22;;;;;;;;;;;28.50;81.30;;;;;;5093558;28;19969;-72
2021/07/21 14:06:48;;;;;;;;;;;28.60;79.40;;;;;;5084723;28;20361;-72
2021/07/21 14:09:15;;;;;;;;;;;28.90;81.40;;;;;;5082078;28;20352;-72
2021/07/21 14:11:41;;;;;;;;;;;29.00;79.40;;;;;;5094011;28;19935;-72
2021/07/21 14:14:07;;;;;;;;;;;29.20;83.40;;;;;;5076096;28;19908;-72
2021/07/21 14:16:36;;;;;;;;;;;29.60;81.80;;;;;;5090628;28;19923;-72
2021/07/21 14:19:02;;;;;;;;;;;29.60;79.30;;;;;;5084386;28;20247;-72
2021/07/21 14:21:28;;;;;;;;;;;29.70;79.20;;;;;;5086582;28;19909;-73